Aviation Digital Data Service (ADDS)

Output produced by METARs form (1936 UTC 23 January 2019)
found at http://www.aviationweather.gov/metar/data/
 
METAR text: KSNA 231853Z 00000KT 10SM FEW230 17/M06 A3033 RMK AO2 SLP271 T01721056
Conditions at: KSNA (COSTA MESA , CA, US) observed 1853 UTC 23 January 2019
Temperature: 17.2°C (63°F)
Dewpoint: -5.6°C (22°F) [RH = 21%]
Pressure (altimeter): 30.33 inches Hg (1027.2 mb)
[Sea-level pressure: 1027.1 mb]
Winds: calm
Visibility: 10 or more miles (16+ km)
Ceiling: at least 12,000 feet AGL
Clouds: few clouds at 23000 feet AGL
Weather: no significant weather observed at this time

METAR text: KSNA 231753Z 00000KT 10SM FEW230 16/M03 A3035 RMK AO2 SLP276 T01561028 10156 20072 52004
Conditions at: KSNA (COSTA MESA , CA, US) observed 1753 UTC 23 January 2019
Temperature: 15.6°C (60°F)
Dewpoint: -2.8°C (27°F) [RH = 28%]
Pressure (altimeter): 30.35 inches Hg (1027.9 mb)
[Sea-level pressure: 1027.6 mb]
Winds: calm
Visibility: 10 or more miles (16+ km)
Ceiling: at least 12,000 feet AGL
Clouds: few clouds at 23000 feet AGL
Weather: no significant weather observed at this time

METAR text: KSNA 231653Z 00000KT 10SM FEW230 13/M02 A3034 RMK AO2 SLP275 T01331017
Conditions at: KSNA (COSTA MESA , CA, US) observed 1653 UTC 23 January 2019
Temperature: 13.3°C (56°F)
Dewpoint: -1.7°C (29°F) [RH = 35%]
Pressure (altimeter): 30.34 inches Hg (1027.5 mb)
[Sea-level pressure: 1027.5 mb]
Winds: calm
Visibility: 10 or more miles (16+ km)
Ceiling: at least 12,000 feet AGL
Clouds: few clouds at 23000 feet AGL
Weather: no significant weather observed at this time

METAR text: KSNA 231553Z 00000KT 10SM FEW230 11/M03 A3034 RMK AO2 SLP272 T01061033
Conditions at: KSNA (COSTA MESA , CA, US) observed 1553 UTC 23 January 2019
Temperature: 10.6°C (51°F)
Dewpoint: -3.3°C (26°F) [RH = 37%]
Pressure (altimeter): 30.34 inches Hg (1027.5 mb)
[Sea-level pressure: 1027.2 mb]
Winds: calm
Visibility: 10 or more miles (16+ km)
Ceiling: at least 12,000 feet AGL
Clouds: few clouds at 23000 feet AGL
Weather: no significant weather observed at this time

METAR text: KSNA 231453Z 00000KT 10SM FEW230 08/M04 A3033 RMK AO2 SLP271 T00831044 53012
Conditions at: KSNA (COSTA MESA , CA, US) observed 1453 UTC 23 January 2019
Temperature: 8.3°C (47°F)
Dewpoint: -4.4°C (24°F) [RH = 40%]
Pressure (altimeter): 30.33 inches Hg (1027.2 mb)
[Sea-level pressure: 1027.1 mb]
Winds: calm
Visibility: 10 or more miles (16+ km)
Ceiling: at least 12,000 feet AGL
Clouds: few clouds at 23000 feet AGL
Weather: no significant weather observed at this time

METAR text: KSNA 231353Z 34004KT 10SM CLR 08/M04 A3032 RMK AO2 SLP268 T00831044
Conditions at: KSNA (COSTA MESA , CA, US) observed 1353 UTC 23 January 2019
Temperature: 8.3°C (47°F)
Dewpoint: -4.4°C (24°F) [RH = 40%]
Pressure (altimeter): 30.32 inches Hg (1026.8 mb)
[Sea-level pressure: 1026.8 mb]
Winds: from the NNW (340 degrees) at 5 MPH (4 knots; 2.1 m/s)
Visibility: 10 or more miles (16+ km)
Ceiling: at least 12,000 feet AGL
Clouds: sky clear below 12,000 feet AGL
Weather: no significant weather observed at this time

METAR text: KSNA 231253Z AUTO 00000KT 10SM CLR 09/M07 A3031 RMK AO2 SLP263 T00891072
Conditions at: KSNA (COSTA MESA , CA, US) observed 1253 UTC 23 January 2019
Temperature: 8.9°C (48°F)
Dewpoint: -7.2°C (19°F) [RH = 31%]
Pressure (altimeter): 30.31 inches Hg (1026.5 mb)
[Sea-level pressure: 1026.3 mb]
Winds: calm
Visibility: 10 or more miles (16+ km)
Ceiling: at least 12,000 feet AGL
Clouds: sky clear below 12,000 feet AGL
Weather: automated observation with no human augmentation;
there may or may not be significant weather present at this time

METAR text: KSNA 231153Z AUTO 27003KT 10SM CLR 10/M08 A3030 RMK AO2 SLP260 T01001083 10161 20100 56008
Conditions at: KSNA (COSTA MESA , CA, US) observed 1153 UTC 23 January 2019
Temperature: 10.0°C (50°F)
Dewpoint: -8.3°C (17°F) [RH = 27%]
Pressure (altimeter): 30.30 inches Hg (1026.2 mb)
[Sea-level pressure: 1026.0 mb]
Winds: from the W (270 degrees) at 3 MPH (3 knots; 1.5 m/s)
Visibility: 10 or more miles (16+ km)
Ceiling: at least 12,000 feet AGL
Clouds: sky clear below 12,000 feet AGL
Weather: automated observation with no human augmentation;
there may or may not be significant weather present at this time

METAR text: KSNA 231053Z AUTO 00000KT 10SM CLR 13/M11 A3030 RMK AO2 SLP261 T01281106
Conditions at: KSNA (COSTA MESA , CA, US) observed 1053 UTC 23 January 2019
Temperature: 12.8°C (55°F)
Dewpoint: -10.6°C (13°F) [RH = 18%]
Pressure (altimeter): 30.30 inches Hg (1026.2 mb)
[Sea-level pressure: 1026.1 mb]
Winds: calm
Visibility: 10 or more miles (16+ km)
Ceiling: at least 12,000 feet AGL
Clouds: sky clear below 12,000 feet AGL
Weather: automated observation with no human augmentation;
there may or may not be significant weather present at this time

METAR text: KSNA 230953Z AUTO 07007KT 10SM CLR 14/M12 A3032 RMK AO2 SLP265 T01391122
Conditions at: KSNA (COSTA MESA , CA, US) observed 0953 UTC 23 January 2019
Temperature: 13.9°C (57°F)
Dewpoint: -12.2°C (10°F) [RH = 15%]
Pressure (altimeter): 30.32 inches Hg (1026.8 mb)
[Sea-level pressure: 1026.5 mb]
Winds: from the ENE (70 degrees) at 8 MPH (7 knots; 3.6 m/s)
Visibility: 10 or more miles (16+ km)
Ceiling: at least 12,000 feet AGL
Clouds: sky clear below 12,000 feet AGL
Weather: automated observation with no human augmentation;
there may or may not be significant weather present at this time

METAR text: KSNA 230853Z AUTO 04009KT 10SM CLR 16/M12 A3032 RMK AO2 SLP268 T01561122 53004
Conditions at: KSNA (COSTA MESA , CA, US) observed 0853 UTC 23 January 2019
Temperature: 15.6°C (60°F)
Dewpoint: -12.2°C (10°F) [RH = 14%]
Pressure (altimeter): 30.32 inches Hg (1026.8 mb)
[Sea-level pressure: 1026.8 mb]
Winds: from the NE (40 degrees) at 10 MPH (9 knots; 4.6 m/s)
Visibility: 10 or more miles (16+ km)
Ceiling: at least 12,000 feet AGL
Clouds: sky clear below 12,000 feet AGL
Weather: automated observation with no human augmentation;
there may or may not be significant weather present at this time

METAR text: KSNA 230753Z AUTO 00000KT 10SM CLR 14/M12 A3031 RMK AO2 SLP264 T01441122 402060061
Conditions at: KSNA (COSTA MESA , CA, US) observed 0753 UTC 23 January 2019
Temperature: 14.4°C (58°F)
Dewpoint: -12.2°C (10°F) [RH = 15%]
Pressure (altimeter): 30.31 inches Hg (1026.5 mb)
[Sea-level pressure: 1026.4 mb]
Winds: calm
Visibility: 10 or more miles (16+ km)
Ceiling: at least 12,000 feet AGL
Clouds: sky clear below 12,000 feet AGL
Weather: automated observation with no human augmentation;
there may or may not be significant weather present at this time

METAR text: KSNA 230653Z 05006KT 10SM CLR 14/M12 A3032 RMK AO2 SLP266 LAST T01441117
Conditions at: KSNA (COSTA MESA , CA, US) observed 0653 UTC 23 January 2019
Temperature: 14.4°C (58°F)
Dewpoint: -11.7°C (11°F) [RH = 15%]
Pressure (altimeter): 30.32 inches Hg (1026.8 mb)
[Sea-level pressure: 1026.6 mb]
Winds: from the NE (50 degrees) at 7 MPH (6 knots; 3.1 m/s)
Visibility: 10 or more miles (16+ km)
Ceiling: at least 12,000 feet AGL
Clouds: sky clear below 12,000 feet AGL
Weather: no significant weather observed at this time

METAR text: KSNA 230553Z 06007KT 10SM CLR 16/M13 A3031 RMK AO2 SLP263 T01611128 10206 20156 53013
Conditions at: KSNA (COSTA MESA , CA, US) observed 0553 UTC 23 January 2019
Temperature: 16.1°C (61°F)
Dewpoint: -12.8°C ( 9°F) [RH = 12%]
Pressure (altimeter): 30.31 inches Hg (1026.5 mb)
[Sea-level pressure: 1026.3 mb]
Winds: from the ENE (60 degrees) at 8 MPH (7 knots; 3.6 m/s)
Visibility: 10 or more miles (16+ km)
Ceiling: at least 12,000 feet AGL
Clouds: sky clear below 12,000 feet AGL
Weather: no significant weather observed at this time

METAR text: KSNA 230453Z 05009KT 10SM FEW250 16/M13 A3029 RMK AO2 SLP258 T01611128
Conditions at: KSNA (COSTA MESA , CA, US) observed 0453 UTC 23 January 2019
Temperature: 16.1°C (61°F)
Dewpoint: -12.8°C ( 9°F) [RH = 12%]
Pressure (altimeter): 30.29 inches Hg (1025.8 mb)
[Sea-level pressure: 1025.8 mb]
Winds: from the NE (50 degrees) at 10 MPH (9 knots; 4.6 m/s)
Visibility: 10 or more miles (16+ km)
Ceiling: at least 12,000 feet AGL
Clouds: few clouds at 25000 feet AGL
Weather: no significant weather observed at this time

METAR text: KSNA 230353Z 05012G18KT 10SM FEW250 17/M13 A3028 RMK AO2 SLP254 T01671128
Conditions at: KSNA (COSTA MESA , CA, US) observed 0353 UTC 23 January 2019
Temperature: 16.7°C (62°F)
Dewpoint: -12.8°C ( 9°F) [RH = 12%]
Pressure (altimeter): 30.28 inches Hg (1025.5 mb)
[Sea-level pressure: 1025.4 mb]
Winds: from the NE (50 degrees) at 14 MPH (12 knots; 6.2 m/s)
gusting to 21 MPH (18 knots; 9.3 m/s)
Visibility: 10 or more miles (16+ km)
Ceiling: at least 12,000 feet AGL
Clouds: few clouds at 25000 feet AGL
Weather: no significant weather observed at this time

METAR text: KSNA 230253Z 06013KT 10SM FEW250 17/M12 A3027 RMK AO2 SLP251 T01671122 51015
Conditions at: KSNA (COSTA MESA , CA, US) observed 0253 UTC 23 January 2019
Temperature: 16.7°C (62°F)
Dewpoint: -12.2°C (10°F) [RH = 13%]
Pressure (altimeter): 30.27 inches Hg (1025.1 mb)
[Sea-level pressure: 1025.1 mb]
Winds: from the ENE (60 degrees) at 15 MPH (13 knots; 6.7 m/s)
Visibility: 10 or more miles (16+ km)
Ceiling: at least 12,000 feet AGL
Clouds: few clouds at 25000 feet AGL
Weather: no significant weather observed at this time

METAR text: KSNA 230153Z 31003KT 10SM CLR 16/M02 A3027 RMK AO2 SLP248 T01611022
Conditions at: KSNA (COSTA MESA , CA, US) observed 0153 UTC 23 January 2019
Temperature: 16.1°C (61°F)
Dewpoint: -2.2°C (28°F) [RH = 28%]
Pressure (altimeter): 30.27 inches Hg (1025.1 mb)
[Sea-level pressure: 1024.8 mb]
Winds: from the NW (310 degrees) at 3 MPH (3 knots; 1.5 m/s)
Visibility: 10 or more miles (16+ km)
Ceiling: at least 12,000 feet AGL
Clouds: sky clear below 12,000 feet AGL
Weather: no significant weather observed at this time

METAR text: KSNA 230053Z 06007KT 10SM BKN250 19/M07 A3025 RMK AO2 SLP242 T01891072
Conditions at: KSNA (COSTA MESA , CA, US) observed 0053 UTC 23 January 2019
Temperature: 18.9°C (66°F)
Dewpoint: -7.2°C (19°F) [RH = 16%]
Pressure (altimeter): 30.25 inches Hg (1024.5 mb)
[Sea-level pressure: 1024.2 mb]
Winds: from the ENE (60 degrees) at 8 MPH (7 knots; 3.6 m/s)
Visibility: 10 or more miles (16+ km)
Ceiling: 25000 feet AGL
Clouds: broken clouds at 25000 feet AGL
Weather: no significant weather observed at this time

METAR text: KSNA 222353Z 02010KT 10SM BKN250 21/M09 A3023 RMK AO2 SLP236 T02061089 10206 20178 50000
Conditions at: KSNA (COSTA MESA , CA, US) observed 2353 UTC 22 January 2019
Temperature: 20.6°C (69°F)
Dewpoint: -8.9°C (16°F) [RH = 13%]
Pressure (altimeter): 30.23 inches Hg (1023.8 mb)
[Sea-level pressure: 1023.6 mb]
Winds: from the NNE (20 degrees) at 12 MPH (10 knots; 5.1 m/s)
Visibility: 10 or more miles (16+ km)
Ceiling: 25000 feet AGL
Clouds: broken clouds at 25000 feet AGL
Weather: no significant weather observed at this time

METAR text: KSNA 222253Z 04013G24KT 10SM BKN250 21/M09 A3023 RMK AO2 SLP236 T02061094
Conditions at: KSNA (COSTA MESA , CA, US) observed 2253 UTC 22 January 2019
Temperature: 20.6°C (69°F)
Dewpoint: -9.4°C (15°F) [RH = 12%]
Pressure (altimeter): 30.23 inches Hg (1023.8 mb)
[Sea-level pressure: 1023.6 mb]
Winds: from the NE (40 degrees) at 15 MPH (13 knots; 6.7 m/s)
gusting to 28 MPH (24 knots; 12.3 m/s)
Visibility: 10 or more miles (16+ km)
Ceiling: 25000 feet AGL
Clouds: broken clouds at 25000 feet AGL
Weather: no significant weather observed at this time

METAR text: KSNA 222153Z 05018G24KT 10SM BKN270 20/M10 A3023 RMK AO2 SLP236 T02001100
Conditions at: KSNA (COSTA MESA , CA, US) observed 2153 UTC 22 January 2019
Temperature: 20.0°C (68°F)
Dewpoint: -10.0°C (14°F) [RH = 12%]
Pressure (altimeter): 30.23 inches Hg (1023.8 mb)
[Sea-level pressure: 1023.6 mb]
Winds: from the NE (50 degrees) at 21 MPH (18 knots; 9.3 m/s)
gusting to 28 MPH (24 knots; 12.3 m/s)
Visibility: 10 or more miles (16+ km)
Ceiling: 27000 feet AGL
Clouds: broken clouds at 27000 feet AGL
Weather: no significant weather observed at this time

METAR text: KSNA 222053Z 03015G25KT 10SM BKN270 20/M09 A3023 RMK AO2 PK WND 03028/2038 SLP236 T02001094 58005
Conditions at: KSNA (COSTA MESA , CA, US) observed 2053 UTC 22 January 2019
Temperature: 20.0°C (68°F)
Dewpoint: -9.4°C (15°F) [RH = 13%]
Pressure (altimeter): 30.23 inches Hg (1023.8 mb)
[Sea-level pressure: 1023.6 mb]
Winds: from the NNE (30 degrees) at 17 MPH (15 knots; 7.7 m/s)
gusting to 29 MPH (25 knots; 12.9 m/s)
Visibility: 10 or more miles (16+ km)
Ceiling: 27000 feet AGL
Clouds: broken clouds at 27000 feet AGL
Weather: no significant weather observed at this time

METAR text: KSNA 221953Z 05017G27KT 10SM BKN270 19/M11 A3023 RMK AO2 PK WND 05027/1926 SLP238 T01941106
Conditions at: KSNA (COSTA MESA , CA, US) observed 1953 UTC 22 January 2019
Temperature: 19.4°C (67°F)
Dewpoint: -10.6°C (13°F) [RH = 12%]
Pressure (altimeter): 30.23 inches Hg (1023.8 mb)
[Sea-level pressure: 1023.8 mb]
Winds: from the NE (50 degrees) at 20 MPH (17 knots; 8.7 m/s)
gusting to 31 MPH (27 knots; 13.9 m/s)
Visibility: 10 or more miles (16+ km)
Ceiling: 27000 feet AGL
Clouds: broken clouds at 27000 feet AGL
Weather: no significant weather observed at this time

METAR text: KSNA 221853Z 04014G21KT 10SM FEW270 19/M09 A3025 RMK AO2 SLP243 T01891089
Conditions at: KSNA (COSTA MESA , CA, US) observed 1853 UTC 22 January 2019
Temperature: 18.9°C (66°F)
Dewpoint: -8.9°C (16°F) [RH = 14%]
Pressure (altimeter): 30.25 inches Hg (1024.5 mb)
[Sea-level pressure: 1024.3 mb]
Winds: from the NE (40 degrees) at 16 MPH (14 knots; 7.2 m/s)
gusting to 24 MPH (21 knots; 10.8 m/s)
Visibility: 10 or more miles (16+ km)
Ceiling: at least 12,000 feet AGL
Clouds: few clouds at 27000 feet AGL
Weather: no significant weather observed at this time

METAR text: KSNA 221753Z 03014G25KT 10SM FEW270 18/M08 A3024 RMK AO2 SLP241 T01781083 10178 20061 51016
Conditions at: KSNA (COSTA MESA , CA, US) observed 1753 UTC 22 January 2019
Temperature: 17.8°C (64°F)
Dewpoint: -8.3°C (17°F) [RH = 16%]
Pressure (altimeter): 30.24 inches Hg (1024.1 mb)
[Sea-level pressure: 1024.1 mb]
Winds: from the NNE (30 degrees) at 16 MPH (14 knots; 7.2 m/s)
gusting to 29 MPH (25 knots; 12.9 m/s)
Visibility: 10 or more miles (16+ km)
Ceiling: at least 12,000 feet AGL
Clouds: few clouds at 27000 feet AGL
Weather: no significant weather observed at this time

METAR text: KSNA 221653Z 05013G24KT 10SM FEW270 17/M08 A3024 RMK AO2 PK WND 03026/1556 SLP239 T01671083
Conditions at: KSNA (COSTA MESA , CA, US) observed 1653 UTC 22 January 2019
Temperature: 16.7°C (62°F)
Dewpoint: -8.3°C (17°F) [RH = 17%]
Pressure (altimeter): 30.24 inches Hg (1024.1 mb)
[Sea-level pressure: 1023.9 mb]
Winds: from the NE (50 degrees) at 15 MPH (13 knots; 6.7 m/s)
gusting to 28 MPH (24 knots; 12.3 m/s)
Visibility: 10 or more miles (16+ km)
Ceiling: at least 12,000 feet AGL
Clouds: few clouds at 27000 feet AGL
Weather: no significant weather observed at this time

METAR text: KSNA 221553Z 05013G22KT 10SM CLR 14/M07 A3022 RMK AO2 SLP234 T01441067
Conditions at: KSNA (COSTA MESA , CA, US) observed 1553 UTC 22 January 2019
Temperature: 14.4°C (58°F)
Dewpoint: -6.7°C (20°F) [RH = 23%]
Pressure (altimeter): 30.22 inches Hg (1023.5 mb)
[Sea-level pressure: 1023.4 mb]
Winds: from the NE (50 degrees) at 15 MPH (13 knots; 6.7 m/s)
gusting to 25 MPH (22 knots; 11.3 m/s)
Visibility: 10 or more miles (16+ km)
Ceiling: at least 12,000 feet AGL
Clouds: sky clear below 12,000 feet AGL
Weather: no significant weather observed at this time

METAR text: KSNA 221453Z 06007KT 10SM CLR 12/M04 A3020 RMK AO2 SLP226 T01221044 53018
Conditions at: KSNA (COSTA MESA , CA, US) observed 1453 UTC 22 January 2019
Temperature: 12.2°C (54°F)
Dewpoint: -4.4°C (24°F) [RH = 31%]
Pressure (altimeter): 30.20 inches Hg (1022.8 mb)
[Sea-level pressure: 1022.6 mb]
Winds: from the ENE (60 degrees) at 8 MPH (7 knots; 3.6 m/s)
Visibility: 10 or more miles (16+ km)
Ceiling: at least 12,000 feet AGL
Clouds: sky clear below 12,000 feet AGL
Weather: no significant weather observed at this time

METAR text: KSNA 221353Z 00000KT 10SM CLR 07/01 A3016 RMK AO2 SLP213 T00670011
Conditions at: KSNA (COSTA MESA , CA, US) observed 1353 UTC 22 January 2019
Temperature: 6.7°C (44°F)
Dewpoint: 1.1°C (34°F) [RH = 67%]
Pressure (altimeter): 30.16 inches Hg (1021.4 mb)
[Sea-level pressure: 1021.3 mb]
Winds: calm
Visibility: 10 or more miles (16+ km)
Ceiling: at least 12,000 feet AGL
Clouds: sky clear below 12,000 feet AGL
Weather: no significant weather observed at this time

METAR text: KSNA 221253Z AUTO 03004KT 10SM CLR 07/02 A3015 RMK AO2 SLP209 T00670017
Conditions at: KSNA (COSTA MESA , CA, US) observed 1253 UTC 22 January 2019
Temperature: 6.7°C (44°F)
Dewpoint: 1.7°C (35°F) [RH = 70%]
Pressure (altimeter): 30.15 inches Hg (1021.1 mb)
[Sea-level pressure: 1020.9 mb]
Winds: from the NNE (30 degrees) at 5 MPH (4 knots; 2.1 m/s)
Visibility: 10 or more miles (16+ km)
Ceiling: at least 12,000 feet AGL
Clouds: sky clear below 12,000 feet AGL
Weather: automated observation with no human augmentation;
there may or may not be significant weather present at this time

METAR text: KSNA 221153Z AUTO 03004KT 10SM CLR 07/02 A3015 RMK AO2 SLP208 T00720017 10128 20072 51011
Conditions at: KSNA (COSTA MESA , CA, US) observed 1153 UTC 22 January 2019
Temperature: 7.2°C (45°F)
Dewpoint: 1.7°C (35°F) [RH = 68%]
Pressure (altimeter): 30.15 inches Hg (1021.1 mb)
[Sea-level pressure: 1020.8 mb]
Winds: from the NNE (30 degrees) at 5 MPH (4 knots; 2.1 m/s)
Visibility: 10 or more miles (16+ km)
Ceiling: at least 12,000 feet AGL
Clouds: sky clear below 12,000 feet AGL
Weather: automated observation with no human augmentation;
there may or may not be significant weather present at this time

METAR text: KSNA 221053Z AUTO 00000KT 10SM CLR 08/02 A3013 RMK AO2 SLP204 T00780017
Conditions at: KSNA (COSTA MESA , CA, US) observed 1053 UTC 22 January 2019
Temperature: 7.8°C (46°F)
Dewpoint: 1.7°C (35°F) [RH = 65%]
Pressure (altimeter): 30.13 inches Hg (1020.4 mb)
[Sea-level pressure: 1020.4 mb]
Winds: calm
Visibility: 10 or more miles (16+ km)
Ceiling: at least 12,000 feet AGL
Clouds: sky clear below 12,000 feet AGL
Weather: automated observation with no human augmentation;
there may or may not be significant weather present at this time

METAR text: KSNA 220953Z AUTO 00000KT 10SM CLR 08/02 A3013 RMK AO2 SLP204 T00830017
Conditions at: KSNA (COSTA MESA , CA, US) observed 0953 UTC 22 January 2019
Temperature: 8.3°C (47°F)
Dewpoint: 1.7°C (35°F) [RH = 63%]
Pressure (altimeter): 30.13 inches Hg (1020.4 mb)
[Sea-level pressure: 1020.4 mb]
Winds: calm
Visibility: 10 or more miles (16+ km)
Ceiling: at least 12,000 feet AGL
Clouds: sky clear below 12,000 feet AGL
Weather: automated observation with no human augmentation;
there may or may not be significant weather present at this time

METAR text: KSNA 220853Z AUTO 00000KT 10SM CLR 09/02 A3011 RMK AO2 SLP196 T00890017 50006
Conditions at: KSNA (COSTA MESA , CA, US) observed 0853 UTC 22 January 2019
Temperature: 8.9°C (48°F)
Dewpoint: 1.7°C (35°F) [RH = 61%]
Pressure (altimeter): 30.11 inches Hg (1019.7 mb)
[Sea-level pressure: 1019.6 mb]
Winds: calm
Visibility: 10 or more miles (16+ km)
Ceiling: at least 12,000 feet AGL
Clouds: sky clear below 12,000 feet AGL
Weather: automated observation with no human augmentation;
there may or may not be significant weather present at this time

METAR text: KSNA 220753Z AUTO 00000KT 10SM CLR 09/02 A3012 RMK AO2 SLP198 T00940022 401830089
Conditions at: KSNA (COSTA MESA , CA, US) observed 0753 UTC 22 January 2019
Temperature: 9.4°C (49°F)
Dewpoint: 2.2°C (36°F) [RH = 61%]
Pressure (altimeter): 30.12 inches Hg (1020.1 mb)
[Sea-level pressure: 1019.8 mb]
Winds: calm
Visibility: 10 or more miles (16+ km)
Ceiling: at least 12,000 feet AGL
Clouds: sky clear below 12,000 feet AGL
Weather: automated observation with no human augmentation;
there may or may not be significant weather present at this time

Forecast for: KSNA (COSTA MESA , CA, US)
Text: KSNA 231720Z 2318/2418 23007KT P6SM SKC
Forecast period: 1800 UTC 23 January 2019 to 1800 UTC 24 January 2019
Forecast type: FROM: standard forecast or significant change
Winds: from the SW (230 degrees) at 8 MPH (7 knots; 3.6 m/s)
Visibility: 6 or more miles 10+ km)
Clouds: clear skies
Weather: no significant weather forecast for this period